Terminal Aerodrome Forecast
Issued by NWS

Home | Current Version | Previous Version | Graphics & Text | Print | Product List | Glossary On
Versions: 1 2 3 4 5 6 7 8 9 10 11 12 13 14 15 16 17 18 19 20 21 22 23 24 25 26 27 28 29 30 31 32 33 34 35 36
000
FTUS43 KLOT 200200 AAA
TAFORD
TAF AMD
KORD 200300Z 2003/2106 21010G20KT P6SM SCT080 SCT250
     FM200800 25010KT P6SM SCT080
     FM201400 30009KT P6SM SCT035
     FM201800 33010KT P6SM BKN035
     FM210400 35007KT P6SM SCT035=

USA.gov is the U.S. government's official web portal to all federal, state and local government web resources and services.